createdAt,value
2019-01-24T00:01:36.633Z,3.02
2019-01-24T00:04:03.642Z,3.05
2019-01-24T00:06:30.600Z,3.11
2019-01-24T00:08:57.554Z,3.14
2019-01-24T00:11:24.506Z,3.12
2019-01-24T00:13:51.477Z,3.01
2019-01-24T00:16:18.402Z,2.95
2019-01-24T00:18:45.363Z,2.90
2019-01-24T00:21:12.293Z,2.88
2019-01-24T00:23:39.311Z,2.88
2019-01-24T00:26:06.257Z,2.94
2019-01-24T00:28:33.223Z,2.90
2019-01-24T00:31:00.248Z,2.87
2019-01-24T00:33:27.250Z,2.83
2019-01-24T00:35:54.226Z,2.85
2019-01-24T00:38:21.183Z,2.85
2019-01-24T00:40:48.112Z,2.84
2019-01-24T00:43:15.050Z,2.87
2019-01-24T00:45:42.102Z,2.90
2019-01-24T00:48:09.088Z,2.91
2019-01-24T00:50:36.477Z,2.99
2019-01-24T00:53:03.889Z,3.04
2019-01-24T00:55:30.830Z,2.97
2019-01-24T00:57:57.917Z,2.90
2019-01-24T01:00:25.003Z,2.81
2019-01-24T01:02:51.982Z,2.69
2019-01-24T01:05:19.930Z,2.72
2019-01-24T01:07:47.104Z,2.62
2019-01-24T01:10:14.051Z,2.58
2019-01-24T01:12:41.047Z,2.58
2019-01-24T01:15:08.787Z,2.57
2019-01-24T01:17:35.760Z,2.54
2019-01-24T01:20:02.757Z,2.55
2019-01-24T01:22:29.694Z,2.53
2019-01-24T01:24:56.698Z,2.51
2019-01-24T01:27:23.644Z,2.47
2019-01-24T01:29:50.606Z,2.38
2019-01-24T01:32:17.563Z,2.36
2019-01-24T01:34:44.524Z,2.38
2019-01-24T01:37:12.375Z,2.42
2019-01-24T01:39:39.326Z,2.42
2019-01-24T01:42:06.453Z,2.45
2019-01-24T01:44:33.410Z,2.47
2019-01-24T01:47:00.451Z,2.45
2019-01-24T01:49:27.407Z,2.44
2019-01-24T01:51:54.403Z,2.46
2019-01-24T01:54:21.455Z,2.42
2019-01-24T01:56:48.397Z,2.44
2019-01-24T01:59:15.359Z,2.41
2019-01-24T02:01:42.341Z,2.44
2019-01-24T02:04:09.290Z,2.44
2019-01-24T02:06:36.252Z,2.43
2019-01-24T02:09:03.214Z,2.42
2019-01-24T02:11:30.346Z,2.42
2019-01-24T02:13:57.302Z,2.46
2019-01-24T02:16:24.320Z,2.41
2019-01-24T02:18:51.255Z,2.38
2019-01-24T02:21:18.197Z,2.35
2019-01-24T02:23:45.181Z,2.35
2019-01-24T02:26:12.127Z,2.37
2019-01-24T02:28:39.061Z,2.39
2019-01-24T02:31:06.068Z,2.38
2019-01-24T02:33:33.005Z,2.36
2019-01-24T02:35:59.966Z,2.38
2019-01-24T02:38:26.954Z,2.41
2019-01-24T02:40:53.988Z,2.39
2019-01-24T02:43:20.931Z,2.42
2019-01-24T02:45:47.881Z,2.41
2019-01-24T02:48:14.833Z,2.35
2019-01-24T02:50:41.861Z,2.42
2019-01-24T02:53:08.893Z,2.46
2019-01-24T02:55:35.943Z,2.45
2019-01-24T02:58:02.913Z,2.43
2019-01-24T03:00:29.883Z,2.47
2019-01-24T03:02:56.841Z,2.47
2019-01-24T03:05:24.029Z,2.45
2019-01-24T03:07:50.983Z,2.42
2019-01-24T03:10:17.921Z,2.38
2019-01-24T03:12:44.873Z,2.38
2019-01-24T03:15:16.630Z,2.39
2019-01-24T03:17:43.610Z,2.46
2019-01-24T03:20:11.116Z,2.50
2019-01-24T03:22:38.087Z,2.54
2019-01-24T03:25:05.066Z,2.58
2019-01-24T03:27:31.998Z,2.60
2019-01-24T03:29:58.985Z,2.60
2019-01-24T03:32:25.941Z,2.63
2019-01-24T03:34:53.287Z,2.64
2019-01-24T03:37:20.231Z,2.68
2019-01-24T03:39:47.174Z,2.69
2019-01-24T03:42:14.126Z,2.65
2019-01-24T03:44:41.201Z,2.67
2019-01-24T03:47:08.132Z,2.67
2019-01-24T03:49:35.082Z,2.65
2019-01-24T03:52:02.814Z,2.66
2019-01-24T03:54:29.900Z,2.63
2019-01-24T03:56:56.849Z,2.67
2019-01-24T03:59:23.803Z,2.66
2019-01-24T04:01:50.748Z,2.61
2019-01-24T04:04:17.718Z,2.57
2019-01-24T04:06:44.735Z,2.51
2019-01-24T04:09:11.705Z,2.56
2019-01-24T04:11:38.683Z,2.56
2019-01-24T04:14:05.630Z,2.62
2019-01-24T04:16:32.587Z,2.65
2019-01-24T04:18:59.516Z,2.67
2019-01-24T04:21:26.794Z,2.72
2019-01-24T04:23:53.722Z,2.72
2019-01-24T04:26:20.688Z,2.66
2019-01-24T04:28:47.641Z,2.65
2019-01-24T04:31:14.585Z,2.68
2019-01-24T04:33:41.548Z,2.65
2019-01-24T04:36:08.688Z,2.57
2019-01-24T04:38:35.656Z,2.49
2019-01-24T04:41:02.635Z,2.43
2019-01-24T04:43:29.636Z,2.33
2019-01-24T04:45:56.639Z,2.26
2019-01-24T04:48:23.582Z,2.26
2019-01-24T04:50:50.529Z,2.25
2019-01-24T04:53:17.479Z,2.24
2019-01-24T04:55:44.404Z,2.32
2019-01-24T04:58:11.536Z,2.30
2019-01-24T05:00:38.496Z,2.29
2019-01-24T05:03:05.436Z,2.32
2019-01-24T05:05:32.383Z,2.35
2019-01-24T05:07:59.348Z,2.38
2019-01-24T05:10:26.296Z,2.39
2019-01-24T05:12:53.378Z,2.37
2019-01-24T05:15:20.376Z,2.33
2019-01-24T05:17:47.332Z,2.28
2019-01-24T05:20:14.730Z,2.30
2019-01-24T05:22:42.134Z,2.27
2019-01-24T05:25:10.450Z,2.23
2019-01-24T05:27:37.877Z,2.18
2019-01-24T05:30:08.583Z,2.15
2019-01-24T05:32:36.150Z,2.13
2019-01-24T05:35:03.561Z,2.15
2019-01-24T05:37:31.026Z,2.15
2019-01-24T05:39:58.429Z,2.14
2019-01-24T05:42:26.563Z,2.13
2019-01-24T05:44:53.978Z,2.10
2019-01-24T05:47:21.445Z,2.09
2019-01-24T05:49:48.856Z,2.13
2019-01-24T05:52:19.773Z,2.11
2019-01-24T05:54:43.698Z,2.11
2019-01-24T05:57:11.246Z,2.14
2019-01-24T05:59:38.727Z,2.10
2019-01-24T06:02:06.198Z,2.06
2019-01-24T06:04:33.656Z,2.09
2019-01-24T06:07:01.077Z,2.01
2019-01-24T06:09:28.508Z,1.98
2019-01-24T06:11:55.931Z,1.98
2019-01-24T06:14:23.343Z,2.00
2019-01-24T06:16:50.787Z,1.99
2019-01-24T06:19:18.204Z,1.98
2019-01-24T06:21:45.642Z,1.96
2019-01-24T06:24:13.047Z,1.94
2019-01-24T06:26:40.473Z,1.94
2019-01-24T06:29:07.879Z,1.97
2019-01-24T06:31:35.298Z,2.02
2019-01-24T06:34:02.833Z,1.98
2019-01-24T06:36:30.347Z,1.95
2019-01-24T06:38:57.735Z,1.95
2019-01-24T06:41:25.146Z,1.95
2019-01-24T06:43:52.622Z,2.01
2019-01-24T06:46:20.045Z,2.03
2019-01-24T06:48:47.568Z,2.06
2019-01-24T06:51:14.974Z,2.07
2019-01-24T06:53:42.064Z,2.07
2019-01-24T06:56:10.575Z,2.15
2019-01-24T06:58:37.935Z,2.23
2019-01-24T07:01:05.394Z,2.38
2019-01-24T07:03:32.812Z,2.43
2019-01-24T07:06:00.299Z,2.39
2019-01-24T07:08:27.245Z,2.32
2019-01-24T07:10:54.249Z,2.30
2019-01-24T07:13:21.866Z,2.25
2019-01-24T07:15:48.913Z,2.23
2019-01-24T07:18:16.024Z,2.22
2019-01-24T07:20:43.116Z,2.20
2019-01-24T07:23:10.056Z,2.19
2019-01-24T07:25:37.035Z,2.16
2019-01-24T07:28:04.452Z,2.20
2019-01-24T07:30:32.012Z,2.26
2019-01-24T07:32:59.749Z,2.36
2019-01-24T07:35:26.823Z,2.52
2019-01-24T07:37:53.780Z,2.64
2019-01-24T07:40:20.753Z,2.73
2019-01-24T07:42:48.183Z,2.82
2019-01-24T07:45:27.604Z,2.84
2019-01-24T07:47:55.027Z,2.87
2019-01-24T07:50:23.456Z,2.91
2019-01-24T07:52:50.860Z,2.86
2019-01-24T07:55:17.827Z,2.88
2019-01-24T07:57:45.369Z,2.93
2019-01-24T08:00:19.654Z,2.93
2019-01-24T08:02:45.793Z,2.92
2019-01-24T08:05:12.904Z,2.89
2019-01-24T08:07:40.361Z,2.90
2019-01-24T08:10:07.346Z,2.92
2019-01-24T08:12:34.781Z,2.98
2019-01-24T08:15:03.519Z,3.02
2019-01-24T08:17:30.982Z,2.96
2019-01-24T08:19:58.556Z,2.96
2019-01-24T08:22:26.996Z,2.95
2019-01-24T08:24:54.521Z,2.98
2019-01-24T08:27:21.939Z,3.02
2019-01-24T08:29:49.359Z,3.01
2019-01-24T08:32:16.777Z,2.94
2019-01-24T08:34:44.249Z,3.01
2019-01-24T08:37:11.760Z,3.03
2019-01-24T08:39:39.177Z,3.06
2019-01-24T08:42:06.579Z,3.09
2019-01-24T08:44:34.006Z,3.14
2019-01-24T08:47:01.486Z,3.30
2019-01-24T08:49:28.903Z,3.32
2019-01-24T08:51:56.308Z,3.41
2019-01-24T08:54:23.749Z,3.43
2019-01-24T08:56:51.171Z,3.47
2019-01-24T08:59:18.606Z,3.47
2019-01-24T09:01:46.071Z,3.41
2019-01-24T09:04:13.470Z,3.34
2019-01-24T09:06:40.913Z,3.37
2019-01-24T09:09:08.465Z,3.45
2019-01-24T09:11:35.884Z,3.49
2019-01-24T09:14:04.440Z,3.38
2019-01-24T09:16:31.912Z,3.38
2019-01-24T09:18:59.330Z,3.45
2019-01-24T09:21:26.753Z,3.48
2019-01-24T09:23:54.205Z,3.51
2019-01-24T09:26:22.070Z,3.56
2019-01-24T09:28:49.534Z,3.59
2019-01-24T09:31:17.376Z,3.59
2019-01-24T09:33:44.823Z,3.59
2019-01-24T09:36:12.776Z,3.60
2019-01-24T09:38:40.322Z,3.59
2019-01-24T09:41:07.766Z,3.66
2019-01-24T09:43:35.271Z,3.73
2019-01-24T09:46:02.278Z,3.84
2019-01-24T09:48:29.712Z,3.87
2019-01-24T09:50:57.191Z,3.84
2019-01-24T09:53:24.138Z,3.89
2019-01-24T09:55:51.540Z,3.84
2019-01-24T09:58:18.730Z,3.75
2019-01-24T10:00:46.261Z,3.78
2019-01-24T10:03:13.727Z,3.81
2019-01-24T10:05:41.196Z,3.90
2019-01-24T10:08:08.922Z,3.94
2019-01-24T10:10:36.324Z,3.96
2019-01-24T10:13:03.759Z,3.98
2019-01-24T10:15:31.177Z,3.96
2019-01-24T10:17:58.589Z,4.01
2019-01-24T10:20:26.002Z,4.08
2019-01-24T10:22:52.985Z,4.27
2019-01-24T10:25:21.110Z,4.38
2019-01-24T10:27:48.545Z,4.33
2019-01-24T10:30:15.967Z,4.34
2019-01-24T10:32:43.613Z,4.35
2019-01-24T10:35:11.023Z,4.52
2019-01-24T10:37:38.537Z,4.67
2019-01-24T10:40:08.731Z,4.54
2019-01-24T10:42:36.222Z,4.61
2019-01-24T10:45:03.628Z,4.69
2019-01-24T10:47:31.238Z,4.64
2019-01-24T10:49:59.268Z,4.82
2019-01-24T10:52:26.748Z,4.81
2019-01-24T10:54:55.291Z,4.80
2019-01-24T10:57:22.684Z,4.81
2019-01-24T10:59:50.162Z,4.95
2019-01-24T11:02:17.616Z,5.10
2019-01-24T11:04:45.074Z,5.12
2019-01-24T11:07:12.501Z,5.42
2019-01-24T11:09:39.928Z,5.99
2019-01-24T11:12:07.434Z,6.41
2019-01-24T11:14:34.855Z,6.94
2019-01-24T11:17:02.257Z,7.42
2019-01-24T11:19:29.660Z,7.48
2019-01-24T11:21:57.172Z,7.35
2019-01-24T11:24:24.713Z,7.23
2019-01-24T11:26:52.193Z,6.93
2019-01-24T11:29:20.193Z,6.56
2019-01-24T11:31:47.637Z,6.23
2019-01-24T11:34:15.953Z,6.78
2019-01-24T11:36:42.825Z,8.29
2019-01-24T11:39:10.240Z,8.65
2019-01-24T11:41:37.699Z,8.10
2019-01-24T11:44:05.450Z,8.75
2019-01-24T11:46:33.314Z,9.38
2019-01-24T11:49:00.748Z,8.99
2019-01-24T11:51:28.156Z,9.44
2019-01-24T11:53:56.296Z,10.66
2019-01-24T11:56:23.773Z,10.10
2019-01-24T11:58:51.177Z,9.48
2019-01-24T12:01:19.990Z,9.54
2019-01-24T12:03:46.177Z,10.45
2019-01-24T12:06:13.608Z,11.36
2019-01-24T12:08:41.165Z,12.14
2019-01-24T12:11:08.590Z,12.20
2019-01-24T12:13:36.206Z,12.47
2019-01-24T12:16:03.865Z,13.11
2019-01-24T12:18:31.302Z,14.05
2019-01-24T12:20:59.662Z,12.82
2019-01-24T12:23:27.329Z,12.55
2019-01-24T12:25:54.826Z,11.70
2019-01-24T12:28:22.559Z,10.58
2019-01-24T12:30:50.013Z,9.37
2019-01-24T12:33:17.727Z,8.32
2019-01-24T12:35:45.315Z,7.85
2019-01-24T12:38:13.667Z,7.73
2019-01-24T12:40:45.947Z,7.54
2019-01-24T12:43:13.570Z,7.28
2019-01-24T12:45:42.092Z,7.35
2019-01-24T12:48:09.598Z,7.23
2019-01-24T12:50:37.953Z,7.12
2019-01-24T12:53:05.379Z,7.13
2019-01-24T12:55:32.910Z,6.75
2019-01-24T12:58:00.311Z,6.25
2019-01-24T13:00:27.720Z,6.21
2019-01-24T13:02:55.192Z,6.26
2019-01-24T13:05:22.775Z,6.16
2019-01-24T13:07:50.231Z,6.18
2019-01-24T13:10:19.122Z,6.15
2019-01-24T13:12:46.549Z,6.17
2019-01-24T13:15:14.027Z,6.00
2019-01-24T13:17:41.517Z,5.90
2019-01-24T13:20:10.378Z,5.91
2019-01-24T13:22:37.824Z,5.87
2019-01-24T13:25:05.285Z,5.65
2019-01-24T13:27:32.853Z,5.55
2019-01-24T13:30:00.267Z,5.51
2019-01-24T13:32:27.665Z,5.56
2019-01-24T13:34:55.817Z,5.41
2019-01-24T13:37:25.956Z,5.30
2019-01-24T13:39:50.768Z,5.20
2019-01-24T13:42:18.159Z,5.15
2019-01-24T13:44:45.590Z,5.23
2019-01-24T13:47:12.990Z,5.22
2019-01-24T13:49:40.466Z,5.15
2019-01-24T13:52:08.207Z,5.12
2019-01-24T13:54:35.362Z,4.90
2019-01-24T13:57:02.859Z,4.95
2019-01-24T13:59:30.333Z,4.98
2019-01-24T14:01:57.842Z,4.96
2019-01-24T14:04:25.246Z,4.91
2019-01-24T14:06:52.763Z,4.96
2019-01-24T14:09:20.403Z,5.00
2019-01-24T14:11:47.967Z,5.00
2019-01-24T14:14:15.443Z,5.00
2019-01-24T14:16:42.860Z,4.98
2019-01-24T14:19:10.263Z,4.98
2019-01-24T14:21:37.843Z,5.01
2019-01-24T14:24:05.251Z,5.12
2019-01-24T14:26:32.673Z,5.31
2019-01-24T14:29:00.084Z,5.43
2019-01-24T14:31:27.499Z,5.32
2019-01-24T14:33:55.149Z,5.32
2019-01-24T14:36:25.389Z,5.36
2019-01-24T14:38:50.247Z,5.17
2019-01-24T14:41:17.648Z,4.87
2019-01-24T14:43:45.086Z,4.71
2019-01-24T14:46:12.490Z,4.63
2019-01-24T14:48:39.999Z,4.50
2019-01-24T14:51:07.563Z,4.34
2019-01-24T14:53:35.043Z,4.24
2019-01-24T14:56:02.504Z,4.22
2019-01-24T14:58:29.955Z,4.23
2019-01-24T15:00:57.368Z,4.17
2019-01-24T15:03:24.776Z,4.17
2019-01-24T15:05:52.287Z,4.05
2019-01-24T15:08:20.483Z,4.02
2019-01-24T15:10:47.978Z,3.96
2019-01-24T15:13:15.401Z,3.89
2019-01-24T15:15:43.145Z,3.71
2019-01-24T15:18:10.806Z,3.57
2019-01-24T15:20:38.249Z,3.59
2019-01-24T15:23:06.640Z,3.63
2019-01-24T15:25:34.043Z,3.60
2019-01-24T15:28:01.497Z,3.49
2019-01-24T15:30:28.943Z,3.37
2019-01-24T15:32:57.381Z,3.37
2019-01-24T15:35:25.045Z,3.36
2019-01-24T15:37:54.613Z,3.38
2019-01-24T15:40:26.608Z,3.37
2019-01-24T15:42:54.174Z,3.29
2019-01-24T15:45:21.587Z,3.15
2019-01-24T15:47:49.047Z,3.11
2019-01-24T15:50:17.389Z,3.12
2019-01-24T15:52:44.783Z,3.15
2019-01-24T15:55:12.189Z,3.21
2019-01-24T15:57:39.718Z,3.18
2019-01-24T16:00:14.582Z,3.21
2019-01-24T16:02:42.051Z,3.16
2019-01-24T16:05:09.468Z,3.02
2019-01-24T16:07:37.094Z,2.89
2019-01-24T16:10:06.342Z,2.83
2019-01-24T16:12:33.838Z,2.80
2019-01-24T16:15:01.371Z,2.77
2019-01-24T16:17:28.818Z,2.75
2019-01-24T16:19:56.253Z,2.77
2019-01-24T16:22:23.834Z,2.80
2019-01-24T16:24:52.232Z,2.78
2019-01-24T16:27:19.659Z,2.78
2019-01-24T16:29:47.038Z,2.80
2019-01-24T16:32:14.485Z,2.80
2019-01-24T16:34:41.882Z,2.77
2019-01-24T16:37:09.323Z,2.70
2019-01-24T16:39:36.808Z,2.67
2019-01-24T16:42:04.280Z,2.70
2019-01-24T16:44:31.821Z,2.75
2019-01-24T16:46:59.236Z,2.74
2019-01-24T16:49:26.629Z,2.80
2019-01-24T16:51:54.032Z,2.85
2019-01-24T16:54:21.795Z,2.82
2019-01-24T16:56:49.271Z,2.75
2019-01-24T16:59:16.699Z,2.75
2019-01-24T17:01:44.151Z,2.84
2019-01-24T17:04:12.579Z,2.83
2019-01-24T17:06:40.041Z,2.83
2019-01-24T17:09:07.500Z,2.86
2019-01-24T17:11:34.941Z,2.88
2019-01-24T17:14:04.084Z,2.83
2019-01-24T17:16:30.131Z,2.70
2019-01-24T17:18:57.595Z,2.62
2019-01-24T17:21:25.068Z,2.60
2019-01-24T17:23:53.313Z,2.64
2019-01-24T17:26:20.804Z,2.64
2019-01-24T17:28:49.954Z,2.61
2019-01-24T17:31:16.425Z,2.68
2019-01-24T17:33:43.845Z,2.63
2019-01-24T17:36:11.239Z,2.58
2019-01-24T17:38:38.763Z,2.58
2019-01-24T17:41:06.150Z,2.53
2019-01-24T17:43:33.645Z,2.55
2019-01-24T17:46:01.174Z,2.47
2019-01-24T17:48:29.134Z,2.32
2019-01-24T17:50:56.591Z,2.23
2019-01-24T17:53:24.032Z,2.22
2019-01-24T17:55:51.492Z,2.23
2019-01-24T17:58:19.247Z,2.27
2019-01-24T18:00:46.845Z,2.32
2019-01-24T18:03:15.076Z,2.32
2019-01-24T18:05:42.552Z,2.38
2019-01-24T18:08:10.895Z,2.38
2019-01-24T18:10:38.390Z,2.38
2019-01-24T18:13:05.812Z,2.32
2019-01-24T18:15:33.209Z,2.25
2019-01-24T18:18:05.587Z,2.18
2019-01-24T18:20:33.013Z,2.16
2019-01-24T18:23:00.653Z,2.21
2019-01-24T18:25:28.109Z,2.14
2019-01-24T18:27:55.590Z,2.10
2019-01-24T18:30:26.021Z,2.02
2019-01-24T18:32:53.473Z,1.94
2019-01-24T18:35:20.894Z,1.94
2019-01-24T18:37:48.521Z,1.91
2019-01-24T18:40:16.893Z,1.86
2019-01-24T18:42:44.328Z,1.85
2019-01-24T18:45:12.559Z,1.83
2019-01-24T18:47:40.003Z,1.86
2019-01-24T18:50:08.156Z,1.89
2019-01-24T18:52:35.641Z,1.95
2019-01-24T18:55:03.205Z,1.96
2019-01-24T18:57:30.740Z,1.98
2019-01-24T18:59:58.142Z,1.95
2019-01-24T19:02:25.624Z,1.94
2019-01-24T19:04:53.102Z,2.02
2019-01-24T19:07:20.627Z,2.14
2019-01-24T19:09:49.008Z,2.12
2019-01-24T19:12:16.532Z,2.09
2019-01-24T19:14:44.002Z,2.11
2019-01-24T19:17:11.506Z,2.09
2019-01-24T19:19:39.100Z,2.07
2019-01-24T19:22:06.567Z,2.14
2019-01-24T19:24:34.202Z,2.20
2019-01-24T19:27:01.556Z,2.16
2019-01-24T19:29:29.010Z,2.11
2019-01-24T19:31:56.416Z,2.08
2019-01-24T19:34:23.843Z,2.06
2019-01-24T19:36:51.306Z,2.04
2019-01-24T19:39:18.713Z,2.05
2019-01-24T19:41:46.217Z,2.06
2019-01-24T19:44:15.854Z,2.11
2019-01-24T19:46:41.378Z,2.15
2019-01-24T19:49:08.941Z,2.18
2019-01-24T19:51:36.367Z,2.22
2019-01-24T19:54:03.914Z,2.20
2019-01-24T19:56:31.299Z,2.13
2019-01-24T19:58:58.721Z,2.04
2019-01-24T20:01:26.557Z,2.08
2019-01-24T20:03:53.976Z,2.11
2019-01-24T20:06:21.404Z,2.10
2019-01-24T20:08:48.847Z,2.07
2019-01-24T20:11:16.318Z,2.01
2019-01-24T20:13:43.790Z,1.95
2019-01-24T20:16:11.188Z,1.88
2019-01-24T20:18:38.709Z,1.86
2019-01-24T20:21:06.138Z,1.94
2019-01-24T20:23:33.571Z,1.93
2019-01-24T20:26:01.063Z,1.88
2019-01-24T20:28:28.499Z,1.90
2019-01-24T20:30:55.912Z,1.93
2019-01-24T20:33:23.321Z,2.06
2019-01-24T20:35:50.723Z,2.07
2019-01-24T20:38:18.224Z,2.07
2019-01-24T20:40:47.050Z,2.08
2019-01-24T20:43:14.550Z,2.08
2019-01-24T20:45:41.973Z,2.21
2019-01-24T20:48:09.858Z,2.21
2019-01-24T20:50:37.298Z,2.19
2019-01-24T20:53:04.739Z,2.17
2019-01-24T20:55:32.184Z,2.16
2019-01-24T20:57:59.644Z,2.18
2019-01-24T21:00:27.075Z,2.22
2019-01-24T21:02:54.526Z,2.27
2019-01-24T21:05:21.988Z,2.21
2019-01-24T21:07:49.675Z,2.15
2019-01-24T21:10:25.681Z,2.14
2019-01-24T21:12:53.106Z,2.15
2019-01-24T21:15:20.593Z,2.14
2019-01-24T21:17:47.999Z,2.13
2019-01-24T21:20:18.348Z,2.16
2019-01-24T21:22:45.804Z,2.15
2019-01-24T21:25:14.751Z,2.14
2019-01-24T21:27:42.158Z,2.11
2019-01-24T21:30:11.429Z,2.16
2019-01-24T21:32:38.854Z,2.15
2019-01-24T21:35:06.268Z,2.14
2019-01-24T21:37:33.723Z,2.20
2019-01-24T21:40:01.226Z,2.25
2019-01-24T21:42:28.643Z,2.06
2019-01-24T21:44:56.059Z,2.00
2019-01-24T21:47:23.574Z,1.99
2019-01-24T21:49:51.099Z,1.99
2019-01-24T21:52:18.497Z,2.03
2019-01-24T21:54:46.004Z,1.97
2019-01-24T21:57:13.421Z,1.84
2019-01-24T21:59:40.820Z,1.91
2019-01-24T22:02:08.259Z,1.79
2019-01-24T22:04:35.726Z,1.79
2019-01-24T22:07:03.158Z,1.78
2019-01-24T22:09:30.565Z,1.73
2019-01-24T22:11:58.123Z,1.71
2019-01-24T22:14:26.479Z,1.77
2019-01-24T22:16:53.103Z,1.70
2019-01-24T22:19:20.521Z,1.64
2019-01-24T22:21:47.903Z,1.54
2019-01-24T22:24:15.327Z,1.58
2019-01-24T22:26:42.763Z,1.67
2019-01-24T22:29:10.183Z,1.61
2019-01-24T22:31:39.126Z,1.63
2019-01-24T22:34:05.012Z,1.63
2019-01-24T22:36:32.459Z,1.61
2019-01-24T22:38:59.895Z,1.62
2019-01-24T22:41:27.295Z,1.58
2019-01-24T22:43:54.695Z,1.55
2019-01-24T22:46:22.415Z,1.51
2019-01-24T22:48:49.881Z,1.53
2019-01-24T22:51:17.290Z,1.53
2019-01-24T22:53:44.703Z,1.49
2019-01-24T22:56:12.103Z,1.52
2019-01-24T22:58:39.579Z,1.51
2019-01-24T23:01:07.591Z,1.50
2019-01-24T23:03:37.297Z,1.40
2019-01-24T23:06:04.708Z,1.37
2019-01-24T23:08:32.115Z,1.31
2019-01-24T23:10:59.535Z,1.33
2019-01-24T23:13:27.012Z,1.31
2019-01-24T23:15:54.469Z,1.34
2019-01-24T23:18:21.962Z,1.34
2019-01-24T23:20:49.363Z,1.28
2019-01-24T23:23:16.783Z,1.26
2019-01-24T23:25:44.207Z,1.29
2019-01-24T23:28:11.612Z,1.29
2019-01-24T23:30:39.040Z,1.32
2019-01-24T23:33:06.473Z,1.33
2019-01-24T23:35:33.887Z,1.33
2019-01-24T23:38:01.999Z,1.37
2019-01-24T23:40:29.390Z,1.38
2019-01-24T23:42:56.807Z,1.47
2019-01-24T23:45:24.213Z,1.42
2019-01-24T23:47:51.723Z,1.35
2019-01-24T23:50:19.135Z,1.32
2019-01-24T23:52:46.536Z,1.32
2019-01-24T23:55:13.942Z,1.33
2019-01-24T23:57:41.365Z,1.31
